createdAt,value
2022-11-20T00:01:21.483Z,10.00
2022-11-20T00:03:48.596Z,10.00
2022-11-20T00:06:18.369Z,10.00
2022-11-20T00:08:46.302Z,10.00
2022-11-20T00:11:16.350Z,10.00
2022-11-20T00:13:44.876Z,10.00
2022-11-20T00:16:13.978Z,9.90
2022-11-20T00:18:41.011Z,10.00
2022-11-20T00:21:12.240Z,9.90
2022-11-20T00:23:39.247Z,9.90
2022-11-20T00:26:08.547Z,9.90
2022-11-20T00:28:36.039Z,9.80
2022-11-20T00:31:12.932Z,9.80
2022-11-20T00:33:40.141Z,9.80
2022-11-20T00:36:12.851Z,9.80
2022-11-20T00:38:40.000Z,9.80
2022-11-20T00:41:10.152Z,9.80
2022-11-20T00:43:38.324Z,9.80
2022-11-20T00:46:19.973Z,9.70
2022-11-20T00:48:47.528Z,9.70
2022-11-20T00:51:16.659Z,9.70
2022-11-20T00:53:44.064Z,9.70
2022-11-20T00:56:13.675Z,9.70
2022-11-20T00:58:42.802Z,9.70
2022-11-20T01:01:12.815Z,9.70
2022-11-20T01:03:42.634Z,9.70
2022-11-20T01:06:18.055Z,9.70
2022-11-20T01:08:45.954Z,9.70
2022-11-20T01:11:21.480Z,9.70
2022-11-20T01:13:50.393Z,9.70
2022-11-20T01:16:27.330Z,9.70
2022-11-20T01:18:57.101Z,9.70
2022-11-20T01:21:26.724Z,9.70
2022-11-20T01:23:53.892Z,9.60
2022-11-20T01:26:33.437Z,9.70
2022-11-20T01:29:02.091Z,9.60
2022-11-20T01:31:33.473Z,9.60
2022-11-20T01:34:07.579Z,9.60
2022-11-20T01:36:36.888Z,9.60
2022-11-20T01:39:08.155Z,9.60
2022-11-20T01:41:54.098Z,9.60
2022-11-20T01:44:23.961Z,9.60
2022-11-20T01:47:00.535Z,9.60
2022-11-20T01:49:46.111Z,9.60
2022-11-20T01:52:18.346Z,9.60
2022-11-20T01:54:52.487Z,9.60
2022-11-20T01:57:20.866Z,9.60
2022-11-20T01:59:54.864Z,9.60
2022-11-20T02:02:22.608Z,9.60
2022-11-20T02:04:52.746Z,9.50
2022-11-20T02:07:21.066Z,9.60
2022-11-20T02:09:48.364Z,9.50
2022-11-20T02:12:35.837Z,9.60
2022-11-20T02:15:03.097Z,9.60
2022-11-20T02:17:30.464Z,9.60
2022-11-20T02:19:57.479Z,9.60
2022-11-20T02:22:42.026Z,9.50
2022-11-20T02:25:10.130Z,9.60
2022-11-20T02:27:37.467Z,9.60
2022-11-20T02:30:08.684Z,9.60
2022-11-20T02:32:37.377Z,9.60
2022-11-20T02:35:31.773Z,9.60
2022-11-20T02:38:03.649Z,9.60
2022-11-20T02:40:30.800Z,9.50
2022-11-20T02:42:58.543Z,9.50
2022-11-20T02:45:26.259Z,9.60
2022-11-20T02:47:53.557Z,9.50
2022-11-20T02:50:20.700Z,9.50
2022-11-20T02:52:47.894Z,9.50
2022-11-20T02:55:14.873Z,9.50
2022-11-20T02:57:41.960Z,9.50
2022-11-20T03:00:10.157Z,9.50
2022-11-20T03:02:38.193Z,9.50
2022-11-20T03:05:05.363Z,9.50
2022-11-20T03:07:32.458Z,9.50
2022-11-20T03:09:59.496Z,9.50
2022-11-20T03:12:26.442Z,9.50
2022-11-20T03:14:53.574Z,9.50
2022-11-20T03:17:20.710Z,9.50
2022-11-20T03:19:47.781Z,9.50
2022-11-20T03:22:15.053Z,9.50
2022-11-20T03:24:41.995Z,9.50
2022-11-20T03:27:08.958Z,9.50
2022-11-20T03:29:39.052Z,9.50
2022-11-20T03:32:06.339Z,9.50
2022-11-20T03:34:33.309Z,9.50
2022-11-20T03:37:00.272Z,9.50
2022-11-20T03:39:27.772Z,9.50
2022-11-20T03:41:55.472Z,9.50
2022-11-20T03:44:23.379Z,9.50
2022-11-20T03:46:50.367Z,9.50
2022-11-20T03:49:17.358Z,9.40
2022-11-20T03:51:44.529Z,9.40
2022-11-20T03:54:11.614Z,9.40
2022-11-20T03:56:40.467Z,9.50
2022-11-20T03:59:07.795Z,9.40
2022-11-20T04:01:38.351Z,9.50
2022-11-20T04:04:06.003Z,9.40
2022-11-20T04:06:38.272Z,9.50
2022-11-20T04:09:06.472Z,9.50
2022-11-20T04:11:38.250Z,9.40
2022-11-20T04:14:07.401Z,9.40
2022-11-20T04:16:37.062Z,9.40
2022-11-20T04:19:07.760Z,9.40
2022-11-20T04:21:34.838Z,9.40
2022-11-20T04:24:02.343Z,9.40
2022-11-20T04:26:30.853Z,9.40
2022-11-20T04:29:00.201Z,9.40
2022-11-20T04:31:29.565Z,9.40
2022-11-20T04:33:59.799Z,9.40
2022-11-20T04:36:28.450Z,9.40
2022-11-20T04:38:57.739Z,9.30
2022-11-20T04:41:31.287Z,9.30
2022-11-20T04:44:03.416Z,9.30
2022-11-20T04:46:32.663Z,9.30
2022-11-20T04:49:00.866Z,9.20
2022-11-20T04:51:28.199Z,9.20
2022-11-20T04:53:55.447Z,9.20
2022-11-20T04:56:22.580Z,9.20
2022-11-20T04:58:49.783Z,9.20
2022-11-20T05:01:22.924Z,9.10
2022-11-20T05:03:50.299Z,9.20
2022-11-20T05:06:19.583Z,9.20
2022-11-20T05:08:46.639Z,9.20
2022-11-20T05:11:19.667Z,9.20
2022-11-20T05:13:46.970Z,9.20
2022-11-20T05:16:16.480Z,9.20
2022-11-20T05:18:44.068Z,9.20
2022-11-20T05:21:12.637Z,9.20
2022-11-20T05:23:40.246Z,9.20
2022-11-20T05:26:09.631Z,9.20
2022-11-20T05:28:36.930Z,9.20
2022-11-20T05:31:12.187Z,9.20
2022-11-20T05:33:41.993Z,9.10
2022-11-20T05:36:10.284Z,9.10
2022-11-20T05:38:37.718Z,9.20
2022-11-20T05:41:13.300Z,9.20
2022-11-20T05:43:41.982Z,9.20
2022-11-20T05:46:11.423Z,9.20
2022-11-20T05:48:40.018Z,9.20
2022-11-20T05:51:09.185Z,9.20
2022-11-20T05:53:37.352Z,9.20
2022-11-20T05:56:06.053Z,9.20
2022-11-20T05:58:33.805Z,9.20
2022-11-20T06:01:22.718Z,9.20
2022-11-20T06:03:51.860Z,9.20
2022-11-20T06:06:20.199Z,9.20
2022-11-20T06:08:48.038Z,9.20
2022-11-20T06:11:16.152Z,9.20
2022-11-20T06:13:43.781Z,9.10
2022-11-20T06:16:11.914Z,9.20
2022-11-20T06:18:39.005Z,9.20
2022-11-20T06:21:15.152Z,9.10
2022-11-20T06:23:42.563Z,9.20
2022-11-20T06:26:15.263Z,9.20
2022-11-20T06:28:42.306Z,9.20
2022-11-20T06:31:13.008Z,9.20
2022-11-20T06:33:40.353Z,9.20
2022-11-20T06:36:10.912Z,9.20
2022-11-20T06:38:39.228Z,9.20
2022-11-20T06:41:13.692Z,9.20
2022-11-20T06:43:40.831Z,9.20
2022-11-20T06:46:07.962Z,9.20
2022-11-20T06:48:34.907Z,9.20
2022-11-20T06:51:04.816Z,9.20
2022-11-20T06:53:31.807Z,9.30
2022-11-20T06:55:59.143Z,9.30
2022-11-20T06:58:28.956Z,9.20
2022-11-20T07:01:00.372Z,9.20
2022-11-20T07:03:27.558Z,9.20
2022-11-20T07:05:58.931Z,9.20
2022-11-20T07:08:26.357Z,9.30
2022-11-20T07:10:53.620Z,9.30
2022-11-20T07:13:20.643Z,9.30
2022-11-20T07:15:47.625Z,9.20
2022-11-20T07:18:14.619Z,9.20
2022-11-20T07:20:41.593Z,9.20
2022-11-20T07:23:08.602Z,9.20
2022-11-20T07:25:35.695Z,9.30
2022-11-20T07:28:04.684Z,9.30
2022-11-20T07:30:32.224Z,9.30
2022-11-20T07:32:59.272Z,9.30
2022-11-20T07:35:26.568Z,9.30
2022-11-20T07:37:53.557Z,9.30
2022-11-20T07:40:20.996Z,9.30
2022-11-20T07:42:56.236Z,9.30
2022-11-20T07:45:25.452Z,9.30
2022-11-20T07:47:52.787Z,9.30
2022-11-20T07:50:24.162Z,9.30
2022-11-20T07:53:02.110Z,9.30
2022-11-20T07:55:29.231Z,9.30
2022-11-20T07:57:58.035Z,9.30
2022-11-20T08:00:25.689Z,9.40
2022-11-20T08:02:52.954Z,9.40
2022-11-20T08:05:20.025Z,9.40
2022-11-20T08:07:47.151Z,9.40
2022-11-20T08:10:17.029Z,9.40
2022-11-20T08:13:08.337Z,9.40
2022-11-20T08:15:35.870Z,9.40
2022-11-20T08:18:31.839Z,9.40
2022-11-20T08:21:03.272Z,9.30
2022-11-20T08:23:30.277Z,9.40
2022-11-20T08:25:57.211Z,9.40
2022-11-20T08:28:24.305Z,9.40
2022-11-20T08:30:51.679Z,9.40
2022-11-20T08:33:19.577Z,9.50
2022-11-20T08:35:46.903Z,9.50
2022-11-20T08:38:13.982Z,9.50
2022-11-20T08:40:40.907Z,9.50
2022-11-20T08:43:07.842Z,9.60
2022-11-20T08:45:35.519Z,9.60
2022-11-20T08:48:04.398Z,9.60
2022-11-20T08:50:33.484Z,9.60
2022-11-20T08:53:05.656Z,9.60
2022-11-20T08:55:32.773Z,9.60
2022-11-20T08:58:03.839Z,9.60
2022-11-20T09:00:30.815Z,9.60
2022-11-20T09:02:59.609Z,9.50
2022-11-20T09:05:26.633Z,9.50
2022-11-20T09:07:56.928Z,9.60
2022-11-20T09:13:10.835Z,9.60
2022-11-20T09:15:37.790Z,9.60
2022-11-20T09:18:06.014Z,9.60
2022-11-20T09:20:33.030Z,9.60
2022-11-20T09:23:00.029Z,9.60
2022-11-20T09:25:27.083Z,9.70
2022-11-20T09:27:58.427Z,9.70
2022-11-20T09:30:25.915Z,9.70
2022-11-20T09:32:52.855Z,9.70
2022-11-20T09:35:19.978Z,9.70
2022-11-20T09:37:47.167Z,9.80
2022-11-20T09:40:35.958Z,9.80
2022-11-20T09:43:18.297Z,9.90
2022-11-20T09:46:09.626Z,9.90
2022-11-20T09:48:36.677Z,10.00
2022-11-20T09:51:06.596Z,10.00
2022-11-20T09:54:00.879Z,10.10
2022-11-20T09:56:29.743Z,10.10
2022-11-20T09:59:00.737Z,10.10
2022-11-20T10:01:33.531Z,10.10
2022-11-20T10:04:11.045Z,10.10
2022-11-20T10:06:59.664Z,10.10
2022-11-20T10:09:43.992Z,10.10
2022-11-20T10:12:11.538Z,10.20
2022-11-20T10:14:50.869Z,10.20
2022-11-20T10:17:42.833Z,10.20
2022-11-20T10:20:54.967Z,10.20
2022-11-20T10:23:27.945Z,10.20
2022-11-20T10:25:57.846Z,10.30
2022-11-20T10:28:36.587Z,10.30
2022-11-20T10:31:24.330Z,10.30
2022-11-20T10:34:11.646Z,10.40
2022-11-20T10:36:50.009Z,10.50
2022-11-20T10:39:31.066Z,10.60
2022-11-20T10:41:58.355Z,10.70
2022-11-20T10:44:52.484Z,10.80
2022-11-20T10:47:28.532Z,10.80
2022-11-20T10:49:59.226Z,10.80
2022-11-20T10:52:46.938Z,10.90
2022-11-20T10:55:19.866Z,10.80
2022-11-20T10:57:52.790Z,10.80
2022-11-20T11:00:19.821Z,10.80
2022-11-20T11:02:51.246Z,10.80
2022-11-20T11:05:36.375Z,10.80
2022-11-20T11:08:05.865Z,10.80
2022-11-20T11:10:55.875Z,10.90
2022-11-20T11:13:27.976Z,11.00
2022-11-20T11:15:55.346Z,11.10
2022-11-20T11:18:34.436Z,11.30
2022-11-20T11:21:04.239Z,11.30
2022-11-20T11:23:40.214Z,11.40
2022-11-20T11:26:28.257Z,11.40
2022-11-20T11:28:57.153Z,11.30
2022-11-20T11:31:35.733Z,11.30
2022-11-20T11:34:13.051Z,11.30
2022-11-20T11:36:40.191Z,11.40
2022-11-20T11:39:15.381Z,11.40
2022-11-20T11:41:42.702Z,11.50
2022-11-20T11:44:39.857Z,11.50
2022-11-20T11:47:14.293Z,11.50
2022-11-20T11:49:41.534Z,11.70
2022-11-20T11:52:15.020Z,11.80
2022-11-20T11:54:50.881Z,11.80
2022-11-20T11:57:37.959Z,11.80
2022-11-20T12:00:14.510Z,11.80
2022-11-20T12:02:49.421Z,11.70
2022-11-20T12:05:20.687Z,11.60
2022-11-20T12:08:18.526Z,11.60
2022-11-20T12:11:00.091Z,11.50
2022-11-20T12:14:05.411Z,11.50
2022-11-20T12:16:37.689Z,11.50
2022-11-20T12:19:13.435Z,11.40
2022-11-20T12:21:49.656Z,11.40
2022-11-20T12:24:35.163Z,11.30
2022-11-20T12:27:16.623Z,11.20
2022-11-20T12:29:49.726Z,11.20
2022-11-20T12:32:16.739Z,11.20
2022-11-20T12:34:58.825Z,11.20
2022-11-20T12:37:36.233Z,11.20
2022-11-20T12:40:24.345Z,11.20
2022-11-20T12:43:17.959Z,11.30
2022-11-20T12:46:07.002Z,11.40
2022-11-20T12:48:46.438Z,11.50
2022-11-20T12:55:22.088Z,11.80
2022-11-20T13:02:04.027Z,11.70
2022-11-20T13:04:50.334Z,11.60
2022-11-20T13:07:18.433Z,11.60
2022-11-20T13:09:48.940Z,11.60
2022-11-20T13:12:26.357Z,11.70
2022-11-20T13:15:07.044Z,11.70
2022-11-20T13:17:44.382Z,11.80
2022-11-20T13:20:18.034Z,11.80
2022-11-20T13:22:56.056Z,11.90
2022-11-20T13:25:27.022Z,12.00
2022-11-20T13:27:55.250Z,11.90
2022-11-20T13:30:24.647Z,11.80
2022-11-20T13:33:35.078Z,11.70
2022-11-20T13:36:25.574Z,11.60
2022-11-20T13:38:55.006Z,11.70
2022-11-20T13:41:32.263Z,11.80
2022-11-20T13:44:20.994Z,11.90
2022-11-20T13:46:48.606Z,11.80
2022-11-20T13:49:35.169Z,11.80
2022-11-20T13:52:33.114Z,11.70
2022-11-20T13:55:15.805Z,11.60
2022-11-20T13:58:20.427Z,11.40
2022-11-20T14:01:19.185Z,11.30
2022-11-20T14:06:44.311Z,11.20
2022-11-20T14:09:26.020Z,11.20
2022-11-20T14:11:52.999Z,11.20
2022-11-20T14:14:26.476Z,11.20
2022-11-20T14:17:05.685Z,11.20
2022-11-20T14:19:33.134Z,11.20
2022-11-20T14:22:19.659Z,11.20
2022-11-20T14:24:48.560Z,11.20
2022-11-20T14:27:20.621Z,11.20
2022-11-20T14:29:50.279Z,11.20
2022-11-20T14:32:20.216Z,11.20
2022-11-20T14:34:49.839Z,11.20
2022-11-20T14:37:39.556Z,11.10
2022-11-20T14:40:28.365Z,11.10
2022-11-20T14:42:56.089Z,11.20
2022-11-20T14:45:23.945Z,11.10
2022-11-20T14:48:47.579Z,11.10
2022-11-20T14:51:32.961Z,11.10
2022-11-20T14:54:15.116Z,11.10
2022-11-20T14:56:42.321Z,11.00
2022-11-20T14:59:10.669Z,11.00
2022-11-20T15:01:38.580Z,11.00
2022-11-20T15:04:11.922Z,11.00
2022-11-20T15:06:49.951Z,11.10
2022-11-20T15:09:17.370Z,11.00
2022-11-20T15:12:01.338Z,11.00
2022-11-20T15:14:31.289Z,11.00
2022-11-20T15:16:58.398Z,11.00
2022-11-20T15:19:27.327Z,10.90
2022-11-20T15:21:54.466Z,10.90
2022-11-20T15:24:21.850Z,11.00
2022-11-20T15:26:49.399Z,11.00
2022-11-20T15:29:21.986Z,11.00
2022-11-20T15:31:49.180Z,11.00
2022-11-20T15:34:16.881Z,11.00
2022-11-20T15:36:44.915Z,10.90
2022-11-20T15:39:12.664Z,10.90
2022-11-20T15:41:40.479Z,10.90
2022-11-20T15:44:07.501Z,10.90
2022-11-20T15:46:39.614Z,10.80
2022-11-20T15:49:12.722Z,10.80
2022-11-20T15:51:42.364Z,10.70
2022-11-20T15:54:27.680Z,10.70
2022-11-20T15:56:55.065Z,10.70
2022-11-20T15:59:22.399Z,10.60
2022-11-20T16:01:49.434Z,10.60
2022-11-20T16:04:19.432Z,10.60
2022-11-20T16:06:54.238Z,10.60
2022-11-20T16:09:21.447Z,10.60
2022-11-20T16:11:48.614Z,10.60
2022-11-20T16:14:34.248Z,10.60
2022-11-20T16:17:01.158Z,10.60
2022-11-20T16:19:28.145Z,10.60
2022-11-20T16:22:01.179Z,10.60
2022-11-20T16:24:29.802Z,10.50
2022-11-20T16:26:58.888Z,10.60
2022-11-20T16:29:25.864Z,10.50
2022-11-20T16:31:52.793Z,10.50
2022-11-20T16:34:19.892Z,10.50
2022-11-20T16:36:46.875Z,10.50
2022-11-20T16:39:16.704Z,10.50
2022-11-20T16:41:46.272Z,10.50
2022-11-20T16:44:13.282Z,10.50
2022-11-20T16:46:41.063Z,10.50
2022-11-20T16:49:13.065Z,10.50
2022-11-20T16:51:40.306Z,10.50
2022-11-20T16:54:09.651Z,10.50
2022-11-20T16:56:37.176Z,10.50
2022-11-20T16:59:18.000Z,10.50
2022-11-20T17:01:45.218Z,10.50
2022-11-20T17:04:12.226Z,10.50
2022-11-20T17:06:44.231Z,10.50
2022-11-20T17:09:11.799Z,10.50
2022-11-20T17:11:38.767Z,10.50
2022-11-20T17:14:07.583Z,10.40
2022-11-20T17:16:38.419Z,10.40
2022-11-20T17:19:05.999Z,10.40
2022-11-20T17:21:36.304Z,10.40
2022-11-20T17:24:06.140Z,10.40
2022-11-20T17:26:34.014Z,10.40
2022-11-20T17:29:06.925Z,10.40
2022-11-20T17:31:34.450Z,10.30
2022-11-20T17:34:05.913Z,10.30
2022-11-20T17:36:33.421Z,10.20
2022-11-20T17:39:00.754Z,10.20
2022-11-20T17:41:29.539Z,10.20
2022-11-20T17:43:58.702Z,10.20
2022-11-20T17:46:33.820Z,10.20
2022-11-20T17:49:02.581Z,10.20
2022-11-20T17:51:32.121Z,10.20
2022-11-20T17:54:07.695Z,10.10
2022-11-20T17:56:58.491Z,10.20
2022-11-20T17:59:26.166Z,10.10
2022-11-20T18:01:55.128Z,10.10
2022-11-20T18:04:23.985Z,9.90
2022-11-20T18:06:51.036Z,9.60
2022-11-20T18:09:18.078Z,9.30
2022-11-20T18:11:45.511Z,8.90
2022-11-20T18:14:34.774Z,8.70
2022-11-20T18:17:08.434Z,8.40
2022-11-20T18:19:48.061Z,8.20
2022-11-20T18:22:27.953Z,8.10
2022-11-20T18:24:56.200Z,8.10
2022-11-20T18:27:23.960Z,8.10
2022-11-20T18:29:52.348Z,8.00
2022-11-20T18:32:23.169Z,8.00
2022-11-20T18:34:50.954Z,8.00
2022-11-20T18:37:18.954Z,7.80
2022-11-20T18:39:45.976Z,7.80
2022-11-20T18:42:34.127Z,7.80
2022-11-20T18:45:02.433Z,7.80
2022-11-20T18:47:37.374Z,7.70
2022-11-20T18:50:06.073Z,7.80
2022-11-20T18:52:38.014Z,7.70
2022-11-20T18:55:10.211Z,7.80
2022-11-20T18:57:37.363Z,7.80
2022-11-20T19:00:09.417Z,7.80
2022-11-20T19:02:41.682Z,7.80
2022-11-20T19:05:13.665Z,7.70
2022-11-20T19:07:41.142Z,7.70
2022-11-20T19:10:08.460Z,7.70
2022-11-20T19:12:35.746Z,7.60
2022-11-20T19:15:04.335Z,7.50
2022-11-20T19:17:33.404Z,7.50
2022-11-20T19:20:01.012Z,7.50
2022-11-20T19:22:28.070Z,7.40
2022-11-20T19:24:55.312Z,7.40
2022-11-20T19:27:24.622Z,7.40
2022-11-20T19:29:51.743Z,7.40
2022-11-20T19:32:18.807Z,7.40
2022-11-20T19:34:45.868Z,7.40
2022-11-20T19:37:13.227Z,7.40
2022-11-20T19:39:40.372Z,7.50
2022-11-20T19:42:07.437Z,7.50
2022-11-20T19:44:34.674Z,7.50
2022-11-20T19:47:04.041Z,7.50
2022-11-20T19:49:31.213Z,7.50
2022-11-20T19:51:58.380Z,7.50
2022-11-20T19:54:27.598Z,7.50
2022-11-20T19:56:54.845Z,7.50
2022-11-20T19:59:22.104Z,7.50
2022-11-20T20:01:49.323Z,7.50
2022-11-20T20:04:16.537Z,7.50
2022-11-20T20:06:45.711Z,7.40
2022-11-20T20:09:13.425Z,7.40
2022-11-20T20:11:41.023Z,7.30
2022-11-20T20:14:14.628Z,7.30
2022-11-20T20:16:42.109Z,7.30
2022-11-20T20:19:13.351Z,7.30
2022-11-20T20:21:46.412Z,7.30
2022-11-20T20:24:13.582Z,7.30
2022-11-20T20:26:41.371Z,7.30
2022-11-20T20:29:08.715Z,7.30
2022-11-20T20:31:36.029Z,7.20
2022-11-20T20:34:05.455Z,7.20
2022-11-20T20:36:32.548Z,7.20
2022-11-20T20:38:59.813Z,7.10
2022-11-20T20:41:29.027Z,7.10
2022-11-20T20:44:15.076Z,7.10
2022-11-20T20:46:42.110Z,7.10
2022-11-20T20:49:11.371Z,7.20
2022-11-20T20:51:38.506Z,7.20
2022-11-20T20:54:05.703Z,7.20
2022-11-20T20:56:32.863Z,7.20
2022-11-20T20:58:59.872Z,7.20
2022-11-20T21:01:30.255Z,7.20
2022-11-20T21:03:57.611Z,7.20
2022-11-20T21:06:25.027Z,7.20
2022-11-20T21:08:52.382Z,7.20
2022-11-20T21:11:20.830Z,7.20
2022-11-20T21:13:48.605Z,7.20
2022-11-20T21:16:17.532Z,7.20
2022-11-20T21:18:44.628Z,7.20
2022-11-20T21:21:35.161Z,7.20
2022-11-20T21:24:03.185Z,7.20
2022-11-20T21:26:30.306Z,7.20
2022-11-20T21:28:57.738Z,7.20
2022-11-20T21:31:26.783Z,7.20
2022-11-20T21:33:55.399Z,7.20
2022-11-20T21:36:32.760Z,7.20
2022-11-20T21:39:00.899Z,7.30
2022-11-20T21:41:32.952Z,7.30
2022-11-20T21:46:50.756Z,7.30
2022-11-20T21:49:20.760Z,7.30
2022-11-20T21:51:47.940Z,7.40
2022-11-20T21:54:14.960Z,7.50
2022-11-20T21:56:42.044Z,7.50
2022-11-20T21:59:14.082Z,7.50
2022-11-20T22:01:41.909Z,7.60
2022-11-20T22:04:13.903Z,7.70
2022-11-20T22:06:41.412Z,7.70
2022-11-20T22:09:10.153Z,7.70
2022-11-20T22:11:37.445Z,7.70
2022-11-20T22:14:23.444Z,7.80
2022-11-20T22:16:52.870Z,7.90
2022-11-20T22:19:21.435Z,7.90
2022-11-20T22:21:49.404Z,8.00
2022-11-20T22:24:18.440Z,8.10
2022-11-20T22:26:46.371Z,8.10
2022-11-20T22:29:21.462Z,8.20
2022-11-20T22:31:50.950Z,8.20
2022-11-20T22:34:17.986Z,8.20
2022-11-20T22:36:45.662Z,8.10
2022-11-20T22:39:13.576Z,8.10
2022-11-20T22:41:40.826Z,8.10
2022-11-20T22:44:08.932Z,8.00
2022-11-20T22:46:37.292Z,8.00
2022-11-20T22:49:06.294Z,8.00
2022-11-20T22:51:41.579Z,8.00
2022-11-20T22:54:33.876Z,8.10
2022-11-20T22:57:00.905Z,8.10
2022-11-20T22:59:27.908Z,8.10
2022-11-20T23:01:54.867Z,8.10
2022-11-20T23:04:22.324Z,8.10
2022-11-20T23:06:49.781Z,8.20
2022-11-20T23:09:17.546Z,8.20
2022-11-20T23:12:03.193Z,8.20
2022-11-20T23:14:31.053Z,8.20
2022-11-20T23:16:58.093Z,8.20
2022-11-20T23:19:25.335Z,8.10
2022-11-20T23:21:52.266Z,8.10
2022-11-20T23:24:19.335Z,8.00
2022-11-20T23:26:47.986Z,8.00
2022-11-20T23:29:15.290Z,8.00
2022-11-20T23:31:42.669Z,8.00
2022-11-20T23:34:09.735Z,8.10
2022-11-20T23:36:36.643Z,8.10
2022-11-20T23:39:03.882Z,8.10
2022-11-20T23:41:30.820Z,8.10
2022-11-20T23:43:57.771Z,8.10
2022-11-20T23:46:24.830Z,8.20
2022-11-20T23:48:51.787Z,8.20
2022-11-20T23:51:18.922Z,8.20
2022-11-20T23:53:45.918Z,8.30
2022-11-20T23:56:15.002Z,8.30
2022-11-20T23:58:42.414Z,8.40
